createdAt,value
2022-08-10T00:01:31.867Z,1.30
2022-08-10T00:03:58.834Z,1.20
2022-08-10T00:06:25.701Z,1.25
2022-08-10T00:08:54.675Z,1.35
2022-08-10T00:11:21.647Z,1.35
2022-08-10T00:13:48.775Z,1.20
2022-08-10T00:16:15.651Z,1.65
2022-08-10T00:18:42.768Z,1.45
2022-08-10T00:21:10.208Z,1.42
2022-08-10T00:23:38.263Z,1.20
2022-08-10T00:26:06.099Z,1.40
2022-08-10T00:28:33.315Z,1.20
2022-08-10T00:31:00.371Z,1.30
2022-08-10T00:33:27.324Z,1.48
2022-08-10T00:35:54.291Z,1.30
2022-08-10T00:38:21.306Z,0.90
2022-08-10T00:40:48.198Z,1.20
2022-08-10T00:43:15.170Z,1.33
2022-08-10T00:45:58.836Z,1.20
2022-08-10T00:48:31.293Z,1.40
2022-08-10T00:50:59.904Z,1.23
2022-08-10T00:53:30.005Z,1.17
2022-08-10T00:57:14.353Z,1.20
2022-08-10T00:58:45.013Z,1.45
2022-08-10T01:02:10.224Z,1.42
2022-08-10T01:04:36.369Z,1.33
2022-08-10T01:07:16.454Z,1.50
2022-08-10T01:10:10.933Z,1.27
2022-08-10T01:12:56.296Z,1.25
2022-08-10T01:15:36.444Z,1.50
2022-08-10T01:18:15.035Z,1.48
2022-08-10T01:20:56.892Z,1.60
2022-08-10T01:23:50.070Z,1.40
2022-08-10T01:26:42.062Z,1.50
2022-08-10T01:29:30.592Z,1.50
2022-08-10T01:32:04.948Z,1.60
2022-08-10T01:34:39.877Z,1.30
2022-08-10T01:37:11.965Z,1.08
2022-08-10T01:39:45.834Z,1.02
2022-08-10T01:42:16.875Z,1.63
2022-08-10T01:44:49.695Z,1.35
2022-08-10T01:47:37.814Z,1.00
2022-08-10T01:50:11.208Z,1.58
2022-08-10T01:52:43.120Z,1.33
2022-08-10T01:55:13.319Z,1.40
2022-08-10T01:57:42.177Z,1.40
2022-08-10T02:00:10.725Z,1.20
2022-08-10T02:02:39.470Z,1.52
2022-08-10T02:05:07.582Z,1.40
2022-08-10T02:07:37.348Z,1.58
2022-08-10T02:10:10.798Z,1.40
2022-08-10T02:12:39.546Z,1.42
2022-08-10T02:15:13.022Z,1.70
2022-08-10T02:17:58.609Z,1.73
2022-08-10T02:20:36.569Z,1.63
2022-08-10T02:23:08.720Z,1.38
2022-08-10T02:25:41.910Z,1.40
2022-08-10T02:28:30.385Z,1.70
2022-08-10T02:31:12.568Z,1.52
2022-08-10T02:33:56.769Z,1.80
2022-08-10T02:36:27.790Z,1.70
2022-08-10T02:39:00.696Z,1.70
2022-08-10T02:45:01.158Z,1.40
2022-08-10T02:45:21.965Z,1.73
2022-08-10T02:47:55.345Z,1.65
2022-08-10T02:50:40.495Z,1.40
2022-08-10T02:53:55.152Z,1.52
2022-08-10T02:56:26.229Z,1.40
2022-08-10T02:59:00.947Z,1.85
2022-08-10T03:01:33.371Z,1.55
2022-08-10T03:04:06.593Z,1.58
2022-08-10T03:06:43.841Z,1.45
2022-08-10T03:09:15.287Z,1.50
2022-08-10T03:12:34.874Z,1.67
2022-08-10T03:14:31.979Z,1.80
2022-08-10T03:17:01.620Z,1.75
2022-08-10T03:20:34.273Z,1.40
2022-08-10T03:22:17.857Z,1.42
2022-08-10T03:24:45.718Z,1.60
2022-08-10T03:27:14.452Z,1.60
2022-08-10T03:30:28.496Z,1.80
2022-08-10T03:32:31.006Z,1.75
2022-08-10T03:34:59.777Z,2.00
2022-08-10T03:37:27.576Z,1.80
2022-08-10T03:39:55.550Z,1.80
2022-08-10T03:42:24.295Z,1.70
2022-08-10T03:44:52.711Z,1.60
2022-08-10T03:47:21.287Z,1.48
2022-08-10T03:49:49.652Z,1.70
2022-08-10T03:52:18.321Z,1.50
2022-08-10T03:54:45.866Z,1.60
2022-08-10T03:57:13.461Z,1.60
2022-08-10T03:59:40.443Z,1.73
2022-08-10T04:02:52.196Z,1.90
2022-08-10T04:04:55.117Z,1.80
2022-08-10T04:07:22.090Z,1.90
2022-08-10T04:09:55.730Z,1.90
2022-08-10T04:12:26.042Z,1.83
2022-08-10T04:14:53.763Z,2.03
2022-08-10T04:18:01.257Z,1.90
2022-08-10T04:20:34.405Z,1.90
2022-08-10T04:23:09.035Z,1.95
2022-08-10T04:25:38.312Z,1.83
2022-08-10T04:28:06.762Z,2.08
2022-08-10T04:30:36.460Z,2.15
2022-08-10T04:33:05.355Z,1.83
2022-08-10T04:35:33.948Z,1.90
2022-08-10T04:38:03.118Z,2.03
2022-08-10T04:40:31.179Z,1.80
2022-08-10T04:43:03.334Z,2.05
2022-08-10T04:45:50.193Z,1.90
2022-08-10T04:48:40.577Z,1.75
2022-08-10T04:51:11.115Z,1.60
2022-08-10T04:54:04.441Z,1.88
2022-08-10T04:56:32.379Z,2.00
2022-08-10T04:59:00.386Z,1.88
2022-08-10T05:02:22.542Z,2.10
2022-08-10T05:04:35.170Z,2.00
2022-08-10T05:07:02.489Z,2.00
2022-08-10T05:09:29.351Z,1.83
2022-08-10T05:11:56.272Z,2.08
2022-08-10T05:14:23.175Z,2.70
2022-08-10T05:16:50.080Z,1.90
2022-08-10T05:19:21.148Z,2.25
2022-08-10T05:22:05.731Z,1.83
2022-08-10T05:24:32.853Z,2.40
2022-08-10T05:27:09.675Z,2.03
2022-08-10T05:29:37.865Z,2.33
2022-08-10T05:32:05.064Z,2.40
2022-08-10T05:34:32.093Z,1.88
2022-08-10T05:37:00.067Z,2.00
2022-08-10T05:39:30.969Z,2.08
2022-08-10T05:42:01.357Z,2.13
2022-08-10T05:44:29.196Z,2.38
2022-08-10T05:46:56.216Z,2.05
2022-08-10T05:49:23.241Z,3.03
2022-08-10T05:51:50.570Z,2.22
2022-08-10T05:54:17.909Z,2.05
2022-08-10T05:56:57.207Z,1.98
2022-08-10T06:00:30.782Z,2.63
2022-08-10T06:02:38.149Z,2.10
2022-08-10T06:05:08.595Z,2.30
2022-08-10T06:07:40.022Z,2.10
2022-08-10T06:10:10.184Z,2.10
2022-08-10T06:12:55.366Z,2.17
2022-08-10T06:15:50.937Z,2.22
2022-08-10T06:18:14.387Z,2.53
2022-08-10T06:20:42.004Z,2.78
2022-08-10T06:23:10.352Z,2.40
2022-08-10T06:26:10.176Z,2.80
2022-08-10T06:28:26.012Z,2.70
2022-08-10T06:30:55.721Z,2.53
2022-08-10T06:33:24.182Z,2.35
2022-08-10T06:35:55.161Z,2.55
2022-08-10T06:38:25.065Z,3.00
2022-08-10T06:40:55.576Z,2.60
2022-08-10T06:43:24.690Z,2.63
2022-08-10T06:46:06.897Z,2.90
2022-08-10T06:48:48.021Z,2.63
2022-08-10T06:51:21.716Z,2.65
2022-08-10T06:53:55.147Z,2.78
2022-08-10T06:56:36.669Z,2.85
2022-08-10T06:59:21.753Z,2.53
2022-08-10T07:01:58.540Z,2.40
2022-08-10T07:04:34.077Z,2.88
2022-08-10T07:07:06.440Z,2.53
2022-08-10T07:09:37.932Z,2.60
2022-08-10T07:12:09.665Z,2.53
2022-08-10T07:14:56.978Z,2.65
2022-08-10T07:17:26.949Z,2.65
2022-08-10T07:19:58.527Z,2.42
2022-08-10T07:23:22.635Z,2.40
2022-08-10T07:25:26.203Z,2.40
2022-08-10T07:27:58.992Z,1.90
2022-08-10T07:30:32.204Z,2.25
2022-08-10T07:33:01.535Z,2.08
2022-08-10T07:35:36.465Z,2.40
2022-08-10T07:38:22.744Z,1.95
2022-08-10T07:40:52.098Z,2.38
2022-08-10T07:43:23.259Z,2.25
2022-08-10T07:45:51.152Z,1.90
2022-08-10T07:48:26.613Z,2.85
2022-08-10T07:50:59.320Z,2.42
2022-08-10T07:53:33.572Z,3.15
2022-08-10T07:56:16.571Z,2.78
2022-08-10T07:58:54.119Z,2.22
2022-08-10T08:01:28.056Z,2.33
2022-08-10T08:04:05.521Z,2.50
2022-08-10T08:06:40.551Z,2.90
2022-08-10T08:09:08.221Z,2.40
2022-08-10T08:11:37.459Z,2.47
2022-08-10T08:14:07.301Z,2.38
2022-08-10T08:16:37.339Z,2.00
2022-08-10T08:24:07.523Z,2.08
2022-08-10T08:24:40.570Z,2.10
2022-08-10T08:27:08.110Z,2.15
2022-08-10T08:29:39.152Z,2.38
2022-08-10T08:32:06.928Z,2.28
2022-08-10T08:34:37.579Z,2.08
2022-08-10T08:37:05.949Z,2.15
2022-08-10T08:39:33.662Z,2.05
2022-08-10T08:42:37.043Z,2.22
2022-08-10T08:45:31.002Z,2.33
2022-08-10T08:48:22.399Z,2.25
2022-08-10T08:50:59.567Z,1.90
2022-08-10T08:54:02.458Z,1.75
2022-08-10T08:56:24.956Z,2.17
2022-08-10T08:59:25.051Z,1.60
2022-08-10T09:02:29.407Z,1.88
2022-08-10T09:05:19.527Z,1.77
2022-08-10T09:08:21.471Z,1.92
2022-08-10T09:11:07.689Z,1.60
2022-08-10T09:13:40.154Z,1.83
2022-08-10T09:16:28.491Z,1.83
2022-08-10T09:19:10.378Z,1.73
2022-08-10T09:22:17.686Z,1.80
2022-08-10T09:25:10.100Z,1.95
2022-08-10T09:27:49.657Z,2.00
2022-08-10T09:30:28.368Z,1.40
2022-08-10T09:36:28.298Z,1.58
2022-08-10T09:40:56.849Z,1.70
2022-08-10T09:43:02.001Z,1.80
2022-08-10T09:45:53.145Z,1.90
2022-08-10T09:48:54.541Z,1.70
2022-08-10T09:51:46.278Z,1.60
2022-08-10T09:54:42.706Z,1.50
2022-08-10T09:57:46.569Z,1.40
2022-08-10T10:00:21.398Z,1.67
2022-08-10T10:03:24.082Z,1.55
2022-08-10T10:06:12.510Z,2.05
2022-08-10T10:09:10.501Z,2.22
2022-08-10T10:12:05.335Z,1.70
2022-08-10T10:15:24.970Z,1.58
2022-08-10T10:18:07.925Z,1.33
2022-08-10T10:21:01.529Z,1.80
2022-08-10T10:24:19.878Z,1.77
2022-08-10T10:26:53.734Z,1.50
2022-08-10T10:29:56.309Z,1.58
2022-08-10T10:32:25.891Z,1.65
2022-08-10T10:35:23.641Z,1.60
2022-08-10T10:38:03.014Z,1.30
2022-08-10T10:40:55.471Z,1.70
2022-08-10T10:43:36.213Z,1.73
2022-08-10T10:46:29.567Z,1.75
2022-08-10T10:49:11.886Z,1.88
2022-08-10T10:51:47.891Z,1.63
2022-08-10T10:54:32.578Z,1.77
2022-08-10T10:57:59.107Z,1.45
2022-08-10T11:00:16.990Z,1.80
2022-08-10T11:03:01.467Z,1.52
2022-08-10T11:05:34.234Z,1.48
2022-08-10T11:08:28.938Z,1.75
2022-08-10T11:11:01.658Z,1.67
2022-08-10T11:14:24.455Z,1.80
2022-08-10T11:16:45.078Z,1.50
2022-08-10T11:20:00.522Z,1.63
2022-08-10T11:22:40.169Z,1.75
2022-08-10T11:25:23.823Z,1.70
2022-08-10T11:27:59.583Z,1.77
2022-08-10T11:30:33.489Z,1.52
2022-08-10T11:33:09.060Z,1.70
2022-08-10T11:35:48.557Z,1.80
2022-08-10T11:39:13.365Z,2.20
2022-08-10T11:42:07.779Z,1.67
2022-08-10T11:44:51.125Z,2.03
2022-08-10T11:47:26.924Z,1.80
2022-08-10T11:50:14.322Z,1.85
2022-08-10T11:52:41.168Z,2.22
2022-08-10T11:55:23.307Z,1.90
2022-08-10T11:57:57.354Z,1.63
2022-08-10T12:00:32.569Z,2.10
2022-08-10T12:03:05.798Z,1.70
2022-08-10T12:05:51.629Z,2.15
2022-08-10T12:10:09.837Z,2.00
2022-08-10T12:11:24.331Z,1.88
2022-08-10T12:14:21.847Z,1.80
2022-08-10T12:16:55.973Z,2.00
2022-08-10T12:20:01.109Z,1.90
2022-08-10T12:22:50.357Z,1.80
2022-08-10T12:25:56.755Z,1.90
2022-08-10T12:28:51.451Z,1.85
2022-08-10T12:31:29.754Z,1.58
2022-08-10T12:34:16.882Z,1.80
2022-08-10T12:37:00.180Z,2.00
2022-08-10T12:39:34.243Z,1.60
2022-08-10T12:42:39.303Z,1.83
2022-08-10T12:45:23.084Z,1.67
2022-08-10T12:48:16.653Z,1.80
2022-08-10T12:51:30.450Z,2.08
2022-08-10T12:54:31.930Z,2.10
2022-08-10T12:57:04.965Z,2.20
2022-08-10T12:59:33.158Z,1.90
2022-08-10T13:02:14.905Z,1.95
2022-08-10T13:04:44.020Z,2.20
2022-08-10T13:08:03.655Z,2.10
2022-08-10T13:10:10.947Z,1.98
2022-08-10T13:12:41.117Z,2.40
2022-08-10T13:15:45.515Z,2.08
2022-08-10T13:18:17.693Z,1.92
2022-08-10T13:20:51.546Z,1.95
2022-08-10T13:23:23.617Z,1.92
2022-08-10T13:25:53.412Z,2.30
2022-08-10T13:28:36.229Z,2.30
2022-08-10T13:31:16.981Z,2.10
2022-08-10T13:34:39.175Z,2.33
2022-08-10T13:36:43.039Z,2.42
2022-08-10T13:39:12.431Z,1.95
2022-08-10T13:41:42.669Z,1.70
2022-08-10T13:44:14.615Z,2.13
2022-08-10T13:46:50.298Z,1.75
2022-08-10T13:49:20.416Z,2.28
2022-08-10T13:51:53.833Z,1.90
2022-08-10T13:54:28.432Z,2.40
2022-08-10T13:56:56.804Z,1.98
2022-08-10T14:00:34.870Z,1.98
2022-08-10T14:02:34.037Z,1.80
2022-08-10T14:05:03.080Z,2.10
2022-08-10T14:07:31.548Z,2.00
2022-08-10T14:10:08.616Z,2.00
2022-08-10T14:12:44.189Z,1.92
2022-08-10T14:15:20.240Z,2.20
2022-08-10T14:17:53.807Z,1.92
2022-08-10T14:20:25.920Z,2.08
2022-08-10T14:23:03.468Z,2.08
2022-08-10T14:25:33.580Z,2.00
2022-08-10T14:28:04.150Z,1.95
2022-08-10T14:30:33.016Z,2.00
2022-08-10T14:33:04.536Z,2.20
2022-08-10T14:36:18.793Z,1.90
2022-08-10T14:38:35.403Z,1.65
2022-08-10T14:41:05.928Z,2.10
2022-08-10T14:43:39.731Z,1.70
2022-08-10T14:46:21.029Z,1.67
2022-08-10T14:48:50.634Z,2.15
2022-08-10T14:51:25.840Z,1.83
2022-08-10T14:53:57.003Z,1.95
2022-08-10T14:56:32.804Z,2.13
2022-08-10T14:59:05.649Z,1.90
2022-08-10T15:02:01.445Z,2.00
2022-08-10T15:04:28.981Z,2.10
2022-08-10T15:07:04.005Z,1.92
2022-08-10T15:10:01.482Z,2.00
2022-08-10T15:12:36.422Z,2.00
2022-08-10T15:15:06.154Z,2.00
2022-08-10T15:17:44.024Z,2.10
2022-08-10T15:20:26.515Z,1.80
2022-08-10T15:22:58.835Z,2.42
2022-08-10T15:25:27.368Z,1.63
2022-08-10T15:28:06.274Z,1.88
2022-08-10T15:30:43.867Z,2.10
2022-08-10T15:34:01.954Z,1.98
2022-08-10T15:37:36.017Z,2.15
2022-08-10T15:40:25.809Z,2.00
2022-08-10T15:42:59.579Z,1.95
2022-08-10T15:45:26.918Z,1.90
2022-08-10T15:48:02.904Z,2.13
2022-08-10T15:50:40.787Z,2.03
2022-08-10T15:53:49.499Z,2.10
2022-08-10T15:56:34.344Z,1.98
2022-08-10T15:59:19.279Z,2.17
2022-08-10T16:02:12.857Z,2.00
2022-08-10T16:04:59.545Z,1.80
2022-08-10T16:07:45.221Z,1.90
2022-08-10T16:10:28.604Z,2.03
2022-08-10T16:13:03.110Z,1.85
2022-08-10T16:15:56.103Z,1.80
2022-08-10T16:18:31.676Z,1.90
2022-08-10T16:21:01.472Z,1.88
2022-08-10T16:23:42.135Z,2.20
2022-08-10T16:26:15.582Z,2.00
2022-08-10T16:28:56.276Z,1.90
2022-08-10T16:31:27.559Z,1.83
2022-08-10T16:33:58.026Z,2.20
2022-08-10T16:36:43.006Z,2.42
2022-08-10T16:39:18.270Z,2.00
2022-08-10T16:42:06.052Z,2.00
2022-08-10T16:44:56.226Z,2.10
2022-08-10T16:47:27.666Z,1.95
2022-08-10T16:49:58.589Z,2.22
2022-08-10T16:52:29.530Z,2.20
2022-08-10T16:55:23.615Z,2.05
2022-08-10T16:58:01.094Z,2.50
2022-08-10T17:00:29.273Z,2.00
2022-08-10T17:03:22.420Z,2.30
2022-08-10T17:06:09.925Z,2.10
2022-08-10T17:08:48.398Z,2.08
2022-08-10T17:11:17.057Z,2.25
2022-08-10T17:13:44.201Z,2.30
2022-08-10T17:16:13.259Z,2.25
2022-08-10T17:18:46.952Z,1.88
2022-08-10T17:21:22.402Z,2.20
2022-08-10T17:23:54.075Z,2.15
2022-08-10T17:26:35.377Z,2.15
2022-08-10T17:29:53.757Z,1.98
2022-08-10T17:32:14.303Z,2.08
2022-08-10T17:34:46.773Z,2.20
2022-08-10T17:37:20.485Z,1.67
2022-08-10T17:39:54.908Z,2.15
2022-08-10T17:42:24.090Z,2.55
2022-08-10T17:44:53.175Z,2.30
2022-08-10T17:47:23.622Z,2.58
2022-08-10T17:49:57.003Z,2.40
2022-08-10T17:52:27.565Z,2.15
2022-08-10T17:54:59.588Z,2.58
2022-08-10T17:57:28.081Z,2.00
2022-08-10T18:00:00.303Z,2.45
2022-08-10T18:02:28.871Z,1.83
2022-08-10T18:04:58.579Z,2.13
2022-08-10T18:07:33.560Z,2.53
2022-08-10T18:10:01.957Z,2.13
2022-08-10T18:12:44.242Z,2.70
2022-08-10T18:15:14.541Z,2.28
2022-08-10T18:17:45.925Z,1.80
2022-08-10T18:20:14.698Z,2.65
2022-08-10T18:22:49.003Z,2.40
2022-08-10T18:25:29.645Z,2.30
2022-08-10T18:28:05.259Z,1.98
2022-08-10T18:30:36.856Z,2.45
2022-08-10T18:33:09.870Z,2.25
2022-08-10T18:35:38.592Z,2.40
2022-08-10T18:38:07.554Z,2.30
2022-08-10T18:40:37.919Z,2.28
2022-08-10T18:44:04.375Z,2.30
2022-08-10T18:45:57.376Z,2.67
2022-08-10T18:48:33.987Z,2.58
2022-08-10T18:51:06.217Z,2.35
2022-08-10T18:53:48.046Z,2.28
2022-08-10T18:56:21.224Z,2.47
2022-08-10T18:58:51.417Z,2.60
2022-08-10T19:01:44.976Z,2.30
2022-08-10T19:05:00.615Z,2.80
2022-08-10T19:07:53.679Z,2.58
2022-08-10T19:10:48.760Z,3.10
2022-08-10T19:13:32.430Z,2.30
2022-08-10T19:16:39.655Z,2.20
2022-08-10T19:19:45.284Z,2.58
2022-08-10T19:22:27.865Z,2.60
2022-08-10T19:25:04.875Z,2.53
2022-08-10T19:27:37.509Z,2.60
2022-08-10T19:30:13.416Z,2.65
2022-08-10T19:33:22.017Z,2.70
2022-08-10T19:36:03.537Z,2.00
2022-08-10T19:38:54.037Z,2.42
2022-08-10T19:41:31.929Z,2.70
2022-08-10T19:44:18.508Z,2.47
2022-08-10T19:46:55.639Z,2.22
2022-08-10T19:49:55.347Z,2.88
2022-08-10T19:52:43.225Z,2.60
2022-08-10T19:55:31.013Z,2.85
2022-08-10T19:58:35.151Z,2.63
2022-08-10T20:01:05.071Z,2.70
2022-08-10T20:03:51.234Z,2.75
2022-08-10T20:06:31.681Z,2.60
2022-08-10T20:09:13.784Z,2.63
2022-08-10T20:12:01.193Z,2.50
2022-08-10T20:14:41.527Z,2.50
2022-08-10T20:17:23.149Z,2.45
2022-08-10T20:20:12.028Z,2.45
2022-08-10T20:22:51.225Z,2.50
2022-08-10T20:25:28.040Z,2.45
2022-08-10T20:28:18.585Z,2.55
2022-08-10T20:30:53.149Z,2.65
2022-08-10T20:33:33.138Z,2.92
2022-08-10T20:36:09.701Z,3.00
2022-08-10T20:39:02.640Z,2.65
2022-08-10T20:41:57.934Z,2.75
2022-08-10T20:44:39.297Z,2.33
2022-08-10T20:47:29.604Z,2.85
2022-08-10T20:50:11.680Z,2.45
2022-08-10T20:52:40.910Z,2.92
2022-08-10T20:55:09.792Z,2.70
2022-08-10T20:58:06.888Z,3.00
2022-08-10T21:00:55.364Z,2.55
2022-08-10T21:03:46.596Z,2.53
2022-08-10T21:06:43.218Z,2.90
2022-08-10T21:09:44.307Z,3.13
2022-08-10T21:12:41.543Z,2.42
2022-08-10T21:15:21.068Z,2.70
2022-08-10T21:17:53.663Z,2.70
2022-08-10T21:20:54.276Z,2.58
2022-08-10T21:23:30.359Z,2.38
2022-08-10T21:26:29.586Z,2.47
2022-08-10T21:29:37.735Z,2.65
2022-08-10T21:32:14.576Z,2.58
2022-08-10T21:35:08.746Z,2.38
2022-08-10T21:38:02.320Z,2.53
2022-08-10T21:40:40.681Z,3.13
2022-08-10T21:44:03.504Z,2.80
2022-08-10T21:47:17.795Z,2.45
2022-08-10T21:50:27.346Z,2.53
2022-08-10T21:53:47.757Z,2.97
2022-08-10T21:56:39.943Z,2.33
2022-08-10T21:59:56.666Z,2.75
2022-08-10T22:02:50.144Z,2.83
2022-08-10T22:05:44.973Z,2.60
2022-08-10T22:08:34.947Z,2.38
2022-08-10T22:11:25.404Z,2.45
2022-08-10T22:14:12.562Z,2.88
2022-08-10T22:18:00.727Z,2.60
2022-08-10T22:20:27.598Z,2.60
2022-08-10T22:23:41.207Z,2.88
2022-08-10T22:26:40.804Z,2.45
2022-08-10T22:29:42.120Z,2.50
2022-08-10T22:32:47.674Z,2.58
2022-08-10T22:36:00.842Z,2.65
2022-08-10T22:39:15.948Z,2.90
2022-08-10T22:42:59.391Z,2.40
2022-08-10T22:45:45.273Z,2.53
2022-08-10T22:48:30.980Z,2.45
2022-08-10T22:51:06.563Z,2.33
2022-08-10T22:54:02.674Z,2.75
2022-08-10T22:56:48.440Z,2.35
2022-08-10T22:59:28.101Z,2.85
2022-08-10T23:02:08.670Z,3.05
2022-08-10T23:04:44.246Z,2.65
2022-08-10T23:07:17.895Z,3.05
2022-08-10T23:10:10.631Z,2.70
2022-08-10T23:13:05.445Z,2.40
2022-08-10T23:16:01.800Z,2.47
2022-08-10T23:18:59.928Z,3.00
2022-08-10T23:21:47.803Z,2.60
2022-08-10T23:24:35.348Z,2.72
2022-08-10T23:27:12.355Z,3.15
2022-08-10T23:30:09.694Z,2.38
2022-08-10T23:32:35.819Z,2.80
2022-08-10T23:36:31.313Z,2.70
2022-08-10T23:38:03.215Z,2.30
2022-08-10T23:40:31.080Z,2.80
2022-08-10T23:42:59.409Z,2.40
2022-08-10T23:45:28.595Z,2.40
2022-08-10T23:48:00.181Z,2.53
2022-08-10T23:50:29.043Z,2.10
2022-08-10T23:53:00.212Z,2.45
2022-08-10T23:55:36.806Z,2.30
2022-08-10T23:58:31.667Z,2.70
